Lone Star Executive Airport
KCXO : now visible

Airfield :











YOU CAN JOIN US ON...

 
LOGIN :

Register | Disclaimer

   EN    FR    IT 

 









Legend :    VFR   Marginal VFR   IFR   Intensive IFR   Very Intensive IFR
Visi :
Ceiling :
>= 8 km
>= 3000ft
5 to 8 km
1000 to 3000 ft
1500m to 5 km
500 to 1000 ft
800 to 1500m
200 to 500 ft
< 800m
< 200 ft
Symbols :   Thunderstorms  Fog  Heavy snow  Heavy precipitations  Wind > 20 kt






- Airport Elevation : 245 ft


KCXO - Lone Star Executive

CURRENT METAR :
  • 220253Z AUTO 13003KT 10SM CLR 23/20 A3002 RMK AO2 SLP164 T02280200 51009

EXPIRED METARs :
  • 220153Z AUTO 12004KT 10SM CLR 23/20 A3002 RMK AO2 SLP161 T02330200
  • 220053Z 11004KT 10SM CLR 24/20 A3001 RMK AO2 SLP159 T02440200
  • 212353Z 12005KT 10SM CLR 27/20 A3000 RMK AO2 SLP155 T02670200 10311 20267 56001

TAF KCXO
Valid from the 22 at 00:00 until the 23 at 00:00 UTC


212335Z 2200/2224 14007KT P6SM FEW045
FM220300 VRB03KT P6SM SCT015
FM220500 12002KT 6SM BR SCT008
FM220700 VRB02KT 2SM BR SCT002 OVC006
TEMPO 2210/2212 1/2SM FG OVC002
FM221600 13006KT P6SM BKN015
FM221700 10005KT P6SM SCT035
FM222100 15007KT P6SM SCT045
KZHU FIR / North America



MET'MAP, your aeronautical weather chart ! - Copyright ORBIFLY December 2007 - Disclaimer

ORBIFLY MET'MAP TEAM :

Programming & Development : Alexandra Zaïnal
Concept & original design : Baudouin d'Aumeries
Assistance for programming : Marc-Olivier Méhu
Technical & hardware support : Manuel Goepfert

Contact : metmap@orbifly.com




SOURCES & CREDITS :

   NOAA       Earth
Advisory